Portada
METAR-TAF:

METAR-TAF

Aeroports :

Aeroport Internacional del Caire

El Caire, Egipte

latitud: 30-08N, longitud: 031-24E, altitud: 64 m

Observació

L'informe es va fer fa 25 minuts, a les 14:00 UTC
Vent 12 kt del Nord
Temperatura 33°C
Humitat 36%
Pressió 1012 hPa
Visibilitat 10 km o més
Núvols disperses a una alçada de 2500 ft

METAR: HECA 171400Z 01012KT 9999 SCT025 33/16 Q1012 NOSIG

Hora: 16:25 (14:25 UTC)

Pronòstic

L'informe es va fer fa 3 hores i 25 minuts, a les 11:00 UTC
Pronòstic vàlid del 17 a les 12 UTC al 18 a les 18 UTC
Vent 10 kt del Nord/Nord-Est
Visibilitat 10 km o més
Núvols disperses a una alçada de 2500 ft
Temporalment
l' 18 a les 00 UTC al 18 a les 06 UTC
Vent 3 kt amb direcció variable
Visibilitat: 4000 m
boirina

TAF: HECA 171100Z 1712/1818 02010KT 9999 SCT025 TEMPO 1800/1806 VRB03KT 4000 BR NSC

Observacions i pronòstics meteorològics de més de 4000 aeroports (METAR i TAF).

Les estacions disponibles són els punts grocs i vermells al mapa.

Posi el ratolí al punt desitjat per veure el nom de l'estació.

Feu clic per veure les observacions i els pronòstics meteorològics.

Per canviar el mapa: feu clic els botons verds amb una creu de color negre per apropar; al botó verd amb un guió per allunyar la imatge; o en les fletxes verdes per a mapes adjacents.


METAR-TAF: